Terminal Aerodrome Forecast
Issued by NWS

Home | Current Version | Previous Version | Text Only | Print | Product List | Glossary On
Versions: 1 2 3 4 5 6 7 8 9 10 11 12 13 14 15 16 17 18 19 20 21 22 23 24
732
FTUS42 KFFC 231416 AAA
TAFPDK
TAF AMD
KPDK 231416Z 2314/2412 15004KT P6SM BKN035
      TEMPO 2314/2316 4SM BR BKN005
     FM231800 17007KT P6SM BKN050 BKN100
     FM240000 16006KT P6SM SCT050 BKN120
     FM240500 13004KT P6SM OVC100
     FM240900 14002KT P6SM OVC050=

USA.gov is the U.S. government's official web portal to all federal, state and local government web resources and services.